sensor_id;sensor_type;location;lat;lon;timestamp;temperature;humidity
48551;DHT22;34397;51.176;6.738;2023-01-25T00:01:23;3.00;68.30
48551;DHT22;34397;51.176;6.738;2023-01-25T00:03:54;3.00;68.20
48551;DHT22;34397;51.176;6.738;2023-01-25T00:06:28;2.90;68.20
48551;DHT22;34397;51.176;6.738;2023-01-25T00:08:59;2.90;68.40
48551;DHT22;34397;51.176;6.738;2023-01-25T00:11:31;2.90;68.50
48551;DHT22;34397;51.176;6.738;2023-01-25T00:14:04;2.90;68.40
48551;DHT22;34397;51.176;6.738;2023-01-25T00:16:36;2.90;68.40
48551;DHT22;34397;51.176;6.738;2023-01-25T00:19:09;2.90;68.60
48551;DHT22;34397;51.176;6.738;2023-01-25T00:21:43;2.90;68.40
48551;DHT22;34397;51.176;6.738;2023-01-25T00:24:14;2.90;68.70
48551;DHT22;34397;51.176;6.738;2023-01-25T00:26:47;2.90;68.40
48551;DHT22;34397;51.176;6.738;2023-01-25T00:29:19;2.90;68.30
48551;DHT22;34397;51.176;6.738;2023-01-25T00:32:00;2.90;68.50
48551;DHT22;34397;51.176;6.738;2023-01-25T00:34:45;2.90;68.40
48551;DHT22;34397;51.176;6.738;2023-01-25T00:37:23;2.90;68.50
48551;DHT22;34397;51.176;6.738;2023-01-25T00:39:56;2.90;68.50
48551;DHT22;34397;51.176;6.738;2023-01-25T00:42:27;2.90;68.80
48551;DHT22;34397;51.176;6.738;2023-01-25T00:44:59;2.90;68.80
48551;DHT22;34397;51.176;6.738;2023-01-25T00:47:31;2.90;68.80
48551;DHT22;34397;51.176;6.738;2023-01-25T00:50:04;2.90;68.80
48551;DHT22;34397;51.176;6.738;2023-01-25T00:52:38;2.90;68.90
48551;DHT22;34397;51.176;6.738;2023-01-25T00:57:44;2.90;68.60
48551;DHT22;34397;51.176;6.738;2023-01-25T01:00:18;2.90;68.80
48551;DHT22;34397;51.176;6.738;2023-01-25T01:02:50;2.90;68.80
48551;DHT22;34397;51.176;6.738;2023-01-25T01:05:22;2.90;69.00
48551;DHT22;34397;51.176;6.738;2023-01-25T01:07:56;2.90;69.10
48551;DHT22;34397;51.176;6.738;2023-01-25T01:10:28;2.90;68.90
48551;DHT22;34397;51.176;6.738;2023-01-25T01:13:00;2.90;69.10
48551;DHT22;34397;51.176;6.738;2023-01-25T01:15:35;2.90;69.20
48551;DHT22;34397;51.176;6.738;2023-01-25T01:18:10;2.90;69.00
48551;DHT22;34397;51.176;6.738;2023-01-25T01:20:47;2.90;69.20
48551;DHT22;34397;51.176;6.738;2023-01-25T01:23:21;2.90;69.20
48551;DHT22;34397;51.176;6.738;2023-01-25T01:25:53;2.90;69.10
48551;DHT22;34397;51.176;6.738;2023-01-25T01:28:29;2.90;69.30
48551;DHT22;34397;51.176;6.738;2023-01-25T01:31:02;2.90;69.20
48551;DHT22;34397;51.176;6.738;2023-01-25T01:33:35;2.90;69.30
48551;DHT22;34397;51.176;6.738;2023-01-25T01:36:08;2.90;69.20
48551;DHT22;34397;51.176;6.738;2023-01-25T01:38:43;2.90;69.40
48551;DHT22;34397;51.176;6.738;2023-01-25T01:41:16;2.90;69.30
48551;DHT22;34397;51.176;6.738;2023-01-25T01:43:49;2.90;69.40
48551;DHT22;34397;51.176;6.738;2023-01-25T01:46:28;2.90;69.20
48551;DHT22;34397;51.176;6.738;2023-01-25T01:49:06;2.90;69.70
48551;DHT22;34397;51.176;6.738;2023-01-25T01:51:45;2.90;69.20
48551;DHT22;34397;51.176;6.738;2023-01-25T01:54:23;2.80;69.20
48551;DHT22;34397;51.176;6.738;2023-01-25T01:57:00;2.90;69.20
48551;DHT22;34397;51.176;6.738;2023-01-25T01:59:40;2.80;69.30
48551;DHT22;34397;51.176;6.738;2023-01-25T02:02:13;2.80;69.30
48551;DHT22;34397;51.176;6.738;2023-01-25T02:04:49;2.80;69.50
48551;DHT22;34397;51.176;6.738;2023-01-25T02:07:24;2.90;69.50
48551;DHT22;34397;51.176;6.738;2023-01-25T02:10:04;2.80;69.40
48551;DHT22;34397;51.176;6.738;2023-01-25T02:12:38;2.80;69.50
48551;DHT22;34397;51.176;6.738;2023-01-25T02:15:10;2.90;69.60
48551;DHT22;34397;51.176;6.738;2023-01-25T02:17:42;2.80;70.30
48551;DHT22;34397;51.176;6.738;2023-01-25T02:20:19;2.80;69.60
48551;DHT22;34397;51.176;6.738;2023-01-25T02:22:58;2.80;69.70
48551;DHT22;34397;51.176;6.738;2023-01-25T02:25:33;2.80;69.60
48551;DHT22;34397;51.176;6.738;2023-01-25T02:28:09;2.80;69.80
48551;DHT22;34397;51.176;6.738;2023-01-25T02:30:44;2.80;69.80
48551;DHT22;34397;51.176;6.738;2023-01-25T02:33:17;2.80;69.90
48551;DHT22;34397;51.176;6.738;2023-01-25T02:35:53;2.90;70.60
48551;DHT22;34397;51.176;6.738;2023-01-25T02:38:29;2.80;70.00
48551;DHT22;34397;51.176;6.738;2023-01-25T02:41:08;2.90;70.00
48551;DHT22;34397;51.176;6.738;2023-01-25T02:43:42;2.90;69.90
48551;DHT22;34397;51.176;6.738;2023-01-25T02:46:19;2.80;69.90
48551;DHT22;34397;51.176;6.738;2023-01-25T02:48:55;2.80;69.90
48551;DHT22;34397;51.176;6.738;2023-01-25T02:51:30;2.80;69.90
48551;DHT22;34397;51.176;6.738;2023-01-25T02:54:05;2.80;69.90
48551;DHT22;34397;51.176;6.738;2023-01-25T02:56:40;2.80;70.10
48551;DHT22;34397;51.176;6.738;2023-01-25T02:59:11;2.80;70.60
48551;DHT22;34397;51.176;6.738;2023-01-25T03:01:47;2.80;70.10
48551;DHT22;34397;51.176;6.738;2023-01-25T03:04:19;2.80;70.30
48551;DHT22;34397;51.176;6.738;2023-01-25T03:06:51;2.80;70.20
48551;DHT22;34397;51.176;6.738;2023-01-25T03:09:22;2.80;70.20
48551;DHT22;34397;51.176;6.738;2023-01-25T03:11:56;2.80;70.20
48551;DHT22;34397;51.176;6.738;2023-01-25T03:14:28;2.80;70.30
48551;DHT22;34397;51.176;6.738;2023-01-25T03:16:59;2.80;70.40
48551;DHT22;34397;51.176;6.738;2023-01-25T03:19:31;2.80;70.50
48551;DHT22;34397;51.176;6.738;2023-01-25T03:22:04;2.80;70.40
48551;DHT22;34397;51.176;6.738;2023-01-25T03:24:36;2.80;70.50
48551;DHT22;34397;51.176;6.738;2023-01-25T03:27:12;2.80;70.50
48551;DHT22;34397;51.176;6.738;2023-01-25T03:29:46;2.80;70.40
48551;DHT22;34397;51.176;6.738;2023-01-25T03:32:18;2.80;70.50
48551;DHT22;34397;51.176;6.738;2023-01-25T03:34:50;2.80;70.40
48551;DHT22;34397;51.176;6.738;2023-01-25T03:37:22;2.80;70.40
48551;DHT22;34397;51.176;6.738;2023-01-25T03:39:56;2.80;70.50
48551;DHT22;34397;51.176;6.738;2023-01-25T03:42:30;2.70;70.50
48551;DHT22;34397;51.176;6.738;2023-01-25T03:45:05;2.80;70.50
48551;DHT22;34397;51.176;6.738;2023-01-25T03:47:37;2.80;70.60
48551;DHT22;34397;51.176;6.738;2023-01-25T03:50:10;2.80;70.70
48551;DHT22;34397;51.176;6.738;2023-01-25T03:52:42;2.80;70.50
48551;DHT22;34397;51.176;6.738;2023-01-25T03:55:16;2.70;70.30
48551;DHT22;34397;51.176;6.738;2023-01-25T03:57:49;2.70;70.10
48551;DHT22;34397;51.176;6.738;2023-01-25T04:00:21;2.60;70.20
48551;DHT22;34397;51.176;6.738;2023-01-25T04:02:53;2.70;70.50
48551;DHT22;34397;51.176;6.738;2023-01-25T04:05:25;2.60;70.70
48551;DHT22;34397;51.176;6.738;2023-01-25T04:07:57;2.60;70.70
48551;DHT22;34397;51.176;6.738;2023-01-25T04:10:29;2.60;70.80
48551;DHT22;34397;51.176;6.738;2023-01-25T04:13:02;2.60;70.90
48551;DHT22;34397;51.176;6.738;2023-01-25T04:15:34;2.60;70.90
48551;DHT22;34397;51.176;6.738;2023-01-25T04:18:06;2.60;71.00
48551;DHT22;34397;51.176;6.738;2023-01-25T04:20:38;2.60;71.10
48551;DHT22;34397;51.176;6.738;2023-01-25T04:23:11;2.60;71.20
48551;DHT22;34397;51.176;6.738;2023-01-25T04:25:50;2.60;71.10
48551;DHT22;34397;51.176;6.738;2023-01-25T04:28:25;2.70;71.30
48551;DHT22;34397;51.176;6.738;2023-01-25T04:30:57;2.60;71.20
48551;DHT22;34397;51.176;6.738;2023-01-25T04:33:29;2.60;71.10
48551;DHT22;34397;51.176;6.738;2023-01-25T04:36:02;2.60;71.10
48551;DHT22;34397;51.176;6.738;2023-01-25T04:38:35;2.60;71.10
48551;DHT22;34397;51.176;6.738;2023-01-25T04:41:07;2.60;71.10
48551;DHT22;34397;51.176;6.738;2023-01-25T04:43:41;2.60;71.30
48551;DHT22;34397;51.176;6.738;2023-01-25T04:46:13;2.60;71.30
48551;DHT22;34397;51.176;6.738;2023-01-25T04:48:45;2.60;71.40
48551;DHT22;34397;51.176;6.738;2023-01-25T04:51:16;2.60;71.40
48551;DHT22;34397;51.176;6.738;2023-01-25T04:53:48;2.60;71.40
48551;DHT22;34397;51.176;6.738;2023-01-25T04:56:20;2.50;71.30
48551;DHT22;34397;51.176;6.738;2023-01-25T04:58:54;2.60;71.40
48551;DHT22;34397;51.176;6.738;2023-01-25T05:01:26;2.60;71.40
48551;DHT22;34397;51.176;6.738;2023-01-25T05:03:57;2.50;71.40
48551;DHT22;34397;51.176;6.738;2023-01-25T05:06:29;2.50;71.50
48551;DHT22;34397;51.176;6.738;2023-01-25T05:09:01;2.50;71.50
48551;DHT22;34397;51.176;6.738;2023-01-25T05:11:33;2.50;71.60
48551;DHT22;34397;51.176;6.738;2023-01-25T05:14:07;2.50;71.60
48551;DHT22;34397;51.176;6.738;2023-01-25T05:16:39;2.50;71.70
48551;DHT22;34397;51.176;6.738;2023-01-25T05:19:12;2.50;71.80
48551;DHT22;34397;51.176;6.738;2023-01-25T05:21:44;2.50;71.70
48551;DHT22;34397;51.176;6.738;2023-01-25T05:24:29;2.50;71.80
48551;DHT22;34397;51.176;6.738;2023-01-25T05:27:02;2.40;71.70
48551;DHT22;34397;51.176;6.738;2023-01-25T05:29:36;2.40;71.80
48551;DHT22;34397;51.176;6.738;2023-01-25T05:32:11;2.40;71.90
48551;DHT22;34397;51.176;6.738;2023-01-25T05:34:44;2.30;72.10
48551;DHT22;34397;51.176;6.738;2023-01-25T05:37:18;2.30;72.50
48551;DHT22;34397;51.176;6.738;2023-01-25T05:39:51;2.20;72.60
48551;DHT22;34397;51.176;6.738;2023-01-25T05:42:23;2.20;72.70
48551;DHT22;34397;51.176;6.738;2023-01-25T05:44:56;2.20;72.70
48551;DHT22;34397;51.176;6.738;2023-01-25T05:47:28;2.20;72.90
48551;DHT22;34397;51.176;6.738;2023-01-25T05:49:59;2.20;73.00
48551;DHT22;34397;51.176;6.738;2023-01-25T05:52:32;2.20;73.10
48551;DHT22;34397;51.176;6.738;2023-01-25T05:55:07;2.20;73.20
48551;DHT22;34397;51.176;6.738;2023-01-25T05:57:39;2.20;73.20
48551;DHT22;34397;51.176;6.738;2023-01-25T06:00:13;2.20;73.30
48551;DHT22;34397;51.176;6.738;2023-01-25T06:02:45;2.30;73.40
48551;DHT22;34397;51.176;6.738;2023-01-25T06:05:17;2.30;73.40
48551;DHT22;34397;51.176;6.738;2023-01-25T06:07:49;2.30;73.30
48551;DHT22;34397;51.176;6.738;2023-01-25T06:10:21;2.30;73.20
48551;DHT22;34397;51.176;6.738;2023-01-25T06:12:56;2.30;73.10
48551;DHT22;34397;51.176;6.738;2023-01-25T06:15:30;2.30;73.20
48551;DHT22;34397;51.176;6.738;2023-01-25T06:18:22;2.30;73.30
48551;DHT22;34397;51.176;6.738;2023-01-25T06:21:32;2.30;73.40
48551;DHT22;34397;51.176;6.738;2023-01-25T06:24:06;2.30;73.40
48551;DHT22;34397;51.176;6.738;2023-01-25T06:26:38;2.30;73.40
48551;DHT22;34397;51.176;6.738;2023-01-25T06:29:10;2.30;73.50
48551;DHT22;34397;51.176;6.738;2023-01-25T06:31:43;2.30;73.40
48551;DHT22;34397;51.176;6.738;2023-01-25T06:34:15;2.20;73.40
48551;DHT22;34397;51.176;6.738;2023-01-25T06:36:47;2.20;73.50
48551;DHT22;34397;51.176;6.738;2023-01-25T06:39:32;2.20;73.80
48551;DHT22;34397;51.176;6.738;2023-01-25T06:42:44;2.10;73.90
48551;DHT22;34397;51.176;6.738;2023-01-25T06:45:45;2.10;73.90
48551;DHT22;34397;51.176;6.738;2023-01-25T06:48:21;2.10;74.00
48551;DHT22;34397;51.176;6.738;2023-01-25T06:51:07;2.10;74.40
48551;DHT22;34397;51.176;6.738;2023-01-25T06:53:52;2.10;74.40
48551;DHT22;34397;51.176;6.738;2023-01-25T06:56:24;2.10;74.20
48551;DHT22;34397;51.176;6.738;2023-01-25T06:58:58;2.10;74.30
48551;DHT22;34397;51.176;6.738;2023-01-25T07:01:30;2.10;73.90
48551;DHT22;34397;51.176;6.738;2023-01-25T07:04:04;2.10;74.20
48551;DHT22;34397;51.176;6.738;2023-01-25T07:06:38;2.20;74.40
48551;DHT22;34397;51.176;6.738;2023-01-25T07:09:13;2.10;74.50
48551;DHT22;34397;51.176;6.738;2023-01-25T07:11:45;2.10;74.60
48551;DHT22;34397;51.176;6.738;2023-01-25T07:14:19;2.10;74.60
48551;DHT22;34397;51.176;6.738;2023-01-25T07:16:54;2.10;74.80
48551;DHT22;34397;51.176;6.738;2023-01-25T07:19:27;2.00;74.70
48551;DHT22;34397;51.176;6.738;2023-01-25T07:22:12;2.00;74.70
48551;DHT22;34397;51.176;6.738;2023-01-25T07:24:44;2.00;74.70
48551;DHT22;34397;51.176;6.738;2023-01-25T07:27:19;2.00;74.70
48551;DHT22;34397;51.176;6.738;2023-01-25T07:29:51;2.00;74.80
48551;DHT22;34397;51.176;6.738;2023-01-25T07:32:23;2.00;75.00
48551;DHT22;34397;51.176;6.738;2023-01-25T07:34:56;2.00;75.00
48551;DHT22;34397;51.176;6.738;2023-01-25T07:37:28;2.00;74.90
48551;DHT22;34397;51.176;6.738;2023-01-25T07:40:01;2.00;75.00
48551;DHT22;34397;51.176;6.738;2023-01-25T07:42:33;1.90;74.90
48551;DHT22;34397;51.176;6.738;2023-01-25T07:45:07;1.90;75.20
48551;DHT22;34397;51.176;6.738;2023-01-25T07:47:39;1.90;75.40
48551;DHT22;34397;51.176;6.738;2023-01-25T07:50:13;1.80;75.60
48551;DHT22;34397;51.176;6.738;2023-01-25T07:52:45;1.90;75.50
48551;DHT22;34397;51.176;6.738;2023-01-25T07:55:17;1.90;76.10
48551;DHT22;34397;51.176;6.738;2023-01-25T07:57:53;1.90;75.50
48551;DHT22;34397;51.176;6.738;2023-01-25T08:00:25;1.90;75.60
48551;DHT22;34397;51.176;6.738;2023-01-25T08:02:57;1.90;75.60
48551;DHT22;34397;51.176;6.738;2023-01-25T08:05:31;1.90;75.50
48551;DHT22;34397;51.176;6.738;2023-01-25T08:08:03;1.90;75.80
48551;DHT22;34397;51.176;6.738;2023-01-25T08:10:35;2.00;75.60
48551;DHT22;34397;51.176;6.738;2023-01-25T08:13:07;1.90;75.70
48551;DHT22;34397;51.176;6.738;2023-01-25T08:15:39;1.90;75.60
48551;DHT22;34397;51.176;6.738;2023-01-25T08:18:11;2.00;75.60
48551;DHT22;34397;51.176;6.738;2023-01-25T08:20:50;2.00;75.60
48551;DHT22;34397;51.176;6.738;2023-01-25T08:23:22;2.00;75.60
48551;DHT22;34397;51.176;6.738;2023-01-25T08:25:54;2.00;75.60
48551;DHT22;34397;51.176;6.738;2023-01-25T08:28:26;2.00;75.70
48551;DHT22;34397;51.176;6.738;2023-01-25T08:31:06;1.90;76.20
48551;DHT22;34397;51.176;6.738;2023-01-25T08:33:39;2.00;75.70
48551;DHT22;34397;51.176;6.738;2023-01-25T08:36:14;2.00;75.70
48551;DHT22;34397;51.176;6.738;2023-01-25T08:38:47;2.00;75.70
48551;DHT22;34397;51.176;6.738;2023-01-25T08:41:24;2.00;75.70
48551;DHT22;34397;51.176;6.738;2023-01-25T08:43:58;2.00;75.70
48551;DHT22;34397;51.176;6.738;2023-01-25T08:46:31;2.00;75.70
48551;DHT22;34397;51.176;6.738;2023-01-25T08:49:09;2.00;75.40
48551;DHT22;34397;51.176;6.738;2023-01-25T08:51:55;2.00;75.40
48551;DHT22;34397;51.176;6.738;2023-01-25T08:54:28;2.00;75.60
48551;DHT22;34397;51.176;6.738;2023-01-25T08:57:00;2.00;75.80
48551;DHT22;34397;51.176;6.738;2023-01-25T08:59:32;2.00;75.80
48551;DHT22;34397;51.176;6.738;2023-01-25T09:02:04;2.00;75.70
48551;DHT22;34397;51.176;6.738;2023-01-25T09:04:36;2.00;75.60
48551;DHT22;34397;51.176;6.738;2023-01-25T09:07:09;2.00;75.60
48551;DHT22;34397;51.176;6.738;2023-01-25T09:09:41;2.00;75.70
48551;DHT22;34397;51.176;6.738;2023-01-25T09:12:13;2.00;75.70
48551;DHT22;34397;51.176;6.738;2023-01-25T09:14:45;2.00;75.60
48551;DHT22;34397;51.176;6.738;2023-01-25T09:17:16;1.90;75.90
48551;DHT22;34397;51.176;6.738;2023-01-25T09:19:56;1.90;76.00
48551;DHT22;34397;51.176;6.738;2023-01-25T09:22:39;1.90;76.00
48551;DHT22;34397;51.176;6.738;2023-01-25T09:25:11;1.90;76.20
48551;DHT22;34397;51.176;6.738;2023-01-25T09:27:43;1.90;76.20
48551;DHT22;34397;51.176;6.738;2023-01-25T09:30:16;1.80;76.10
48551;DHT22;34397;51.176;6.738;2023-01-25T09:32:49;1.80;76.00
48551;DHT22;34397;51.176;6.738;2023-01-25T09:35:21;1.80;76.00
48551;DHT22;34397;51.176;6.738;2023-01-25T09:37:54;1.90;76.00
48551;DHT22;34397;51.176;6.738;2023-01-25T09:40:32;1.80;76.00
48551;DHT22;34397;51.176;6.738;2023-01-25T09:43:13;1.80;76.20
48551;DHT22;34397;51.176;6.738;2023-01-25T09:45:46;1.80;76.40
48551;DHT22;34397;51.176;6.738;2023-01-25T09:48:23;1.80;76.40
48551;DHT22;34397;51.176;6.738;2023-01-25T09:51:14;1.80;76.30
48551;DHT22;34397;51.176;6.738;2023-01-25T09:53:53;1.80;76.30
48551;DHT22;34397;51.176;6.738;2023-01-25T09:56:29;1.80;76.40
48551;DHT22;34397;51.176;6.738;2023-01-25T09:59:09;1.80;76.50
48551;DHT22;34397;51.176;6.738;2023-01-25T10:01:51;1.90;76.50
48551;DHT22;34397;51.176;6.738;2023-01-25T10:04:26;1.80;76.40
48551;DHT22;34397;51.176;6.738;2023-01-25T10:07:08;1.80;76.40
48551;DHT22;34397;51.176;6.738;2023-01-25T10:09:48;1.90;76.50
48551;DHT22;34397;51.176;6.738;2023-01-25T10:12:24;1.80;76.60
48551;DHT22;34397;51.176;6.738;2023-01-25T10:14:58;1.90;76.60
48551;DHT22;34397;51.176;6.738;2023-01-25T10:17:33;1.90;76.70
48551;DHT22;34397;51.176;6.738;2023-01-25T10:20:19;1.90;76.80
48551;DHT22;34397;51.176;6.738;2023-01-25T10:23:11;1.90;76.80
48551;DHT22;34397;51.176;6.738;2023-01-25T10:25:56;2.00;76.90
48551;DHT22;34397;51.176;6.738;2023-01-25T10:28:38;2.00;76.80
48551;DHT22;34397;51.176;6.738;2023-01-25T10:31:16;2.10;76.80
48551;DHT22;34397;51.176;6.738;2023-01-25T10:33:49;2.10;76.80
48551;DHT22;34397;51.176;6.738;2023-01-25T10:36:22;2.10;76.70
48551;DHT22;34397;51.176;6.738;2023-01-25T10:38:58;2.20;76.70
48551;DHT22;34397;51.176;6.738;2023-01-25T10:41:38;2.20;76.40
48551;DHT22;34397;51.176;6.738;2023-01-25T10:44:12;2.10;76.30
48551;DHT22;34397;51.176;6.738;2023-01-25T10:47:00;2.20;76.40
48551;DHT22;34397;51.176;6.738;2023-01-25T10:49:40;2.20;76.20
48551;DHT22;34397;51.176;6.738;2023-01-25T10:52:15;2.30;76.00
48551;DHT22;34397;51.176;6.738;2023-01-25T10:57:41;2.20;76.10
48551;DHT22;34397;51.176;6.738;2023-01-25T11:00:23;2.30;76.00
48551;DHT22;34397;51.176;6.738;2023-01-25T11:02:57;2.30;76.00
48551;DHT22;34397;51.176;6.738;2023-01-25T11:05:33;2.30;76.20
48551;DHT22;34397;51.176;6.738;2023-01-25T11:08:22;2.30;75.90
48551;DHT22;34397;51.176;6.738;2023-01-25T11:10:55;2.30;75.50
48551;DHT22;34397;51.176;6.738;2023-01-25T11:13:32;2.40;75.70
48551;DHT22;34397;51.176;6.738;2023-01-25T11:16:18;2.40;75.80
48551;DHT22;34397;51.176;6.738;2023-01-25T11:18:56;2.40;75.60
48551;DHT22;34397;51.176;6.738;2023-01-25T11:21:30;2.50;75.70
48551;DHT22;34397;51.176;6.738;2023-01-25T11:24:15;2.40;75.60
48551;DHT22;34397;51.176;6.738;2023-01-25T11:26:48;2.50;75.50
48551;DHT22;34397;51.176;6.738;2023-01-25T11:29:22;2.50;75.70
48551;DHT22;34397;51.176;6.738;2023-01-25T11:31:54;2.50;75.50
48551;DHT22;34397;51.176;6.738;2023-01-25T11:34:28;2.50;75.60
48551;DHT22;34397;51.176;6.738;2023-01-25T11:37:15;2.50;75.10
48551;DHT22;34397;51.176;6.738;2023-01-25T11:39:57;2.50;74.90
48551;DHT22;34397;51.176;6.738;2023-01-25T11:42:40;2.50;75.20
48551;DHT22;34397;51.176;6.738;2023-01-25T11:48:46;2.50;75.00
48551;DHT22;34397;51.176;6.738;2023-01-25T11:51:28;2.40;74.80
48551;DHT22;34397;51.176;6.738;2023-01-25T11:54:16;2.50;74.90
48551;DHT22;34397;51.176;6.738;2023-01-25T11:57:17;2.50;74.50
48551;DHT22;34397;51.176;6.738;2023-01-25T12:00:04;2.50;74.50
48551;DHT22;34397;51.176;6.738;2023-01-25T12:06:11;2.40;74.70
48551;DHT22;34397;51.176;6.738;2023-01-25T12:09:09;2.40;74.90
48551;DHT22;34397;51.176;6.738;2023-01-25T12:12:08;2.30;74.70
48551;DHT22;34397;51.176;6.738;2023-01-25T12:15:02;2.30;74.70
48551;DHT22;34397;51.176;6.738;2023-01-25T12:17:58;2.30;74.70
48551;DHT22;34397;51.176;6.738;2023-01-25T12:20:53;2.20;75.10
48551;DHT22;34397;51.176;6.738;2023-01-25T12:23:50;2.10;75.00
48551;DHT22;34397;51.176;6.738;2023-01-25T12:26:31;2.10;75.40
48551;DHT22;34397;51.176;6.738;2023-01-25T12:29:18;2.00;75.60
48551;DHT22;34397;51.176;6.738;2023-01-25T12:31:57;2.00;75.80
48551;DHT22;34397;51.176;6.738;2023-01-25T12:34:35;2.00;75.90
48551;DHT22;34397;51.176;6.738;2023-01-25T12:37:13;2.00;75.80
48551;DHT22;34397;51.176;6.738;2023-01-25T12:39:50;2.00;75.50
48551;DHT22;34397;51.176;6.738;2023-01-25T12:42:30;2.00;75.70
48551;DHT22;34397;51.176;6.738;2023-01-25T12:45:10;2.00;75.70
48551;DHT22;34397;51.176;6.738;2023-01-25T12:47:48;2.00;75.90
48551;DHT22;34397;51.176;6.738;2023-01-25T12:50:27;2.10;76.00
48551;DHT22;34397;51.176;6.738;2023-01-25T12:53:09;2.20;75.70
48551;DHT22;34397;51.176;6.738;2023-01-25T12:55:47;2.20;75.50
48551;DHT22;34397;51.176;6.738;2023-01-25T12:58:26;2.20;75.60
48551;DHT22;34397;51.176;6.738;2023-01-25T13:01:08;2.20;75.30
48551;DHT22;34397;51.176;6.738;2023-01-25T13:03:57;2.20;75.20
48551;DHT22;34397;51.176;6.738;2023-01-25T13:06:40;2.20;75.10
48551;DHT22;34397;51.176;6.738;2023-01-25T13:09:19;2.20;75.00
48551;DHT22;34397;51.176;6.738;2023-01-25T13:11:54;2.10;75.10
48551;DHT22;34397;51.176;6.738;2023-01-25T13:14:28;2.20;75.40
48551;DHT22;34397;51.176;6.738;2023-01-25T13:17:22;2.10;75.20
48551;DHT22;34397;51.176;6.738;2023-01-25T13:20:00;2.10;75.20
48551;DHT22;34397;51.176;6.738;2023-01-25T13:22:56;2.10;75.40
48551;DHT22;34397;51.176;6.738;2023-01-25T13:25:29;2.10;75.30
48551;DHT22;34397;51.176;6.738;2023-01-25T13:28:38;2.20;75.20
48551;DHT22;34397;51.176;6.738;2023-01-25T13:31:42;2.10;75.10
48551;DHT22;34397;51.176;6.738;2023-01-25T13:37:35;2.00;75.20
48551;DHT22;34397;51.176;6.738;2023-01-25T13:40:27;2.00;75.40
48551;DHT22;34397;51.176;6.738;2023-01-25T13:43:03;2.00;75.40
48551;DHT22;34397;51.176;6.738;2023-01-25T13:45:38;2.00;75.60
48551;DHT22;34397;51.176;6.738;2023-01-25T13:48:13;2.00;75.70
48551;DHT22;34397;51.176;6.738;2023-01-25T13:50:50;2.00;75.90
48551;DHT22;34397;51.176;6.738;2023-01-25T13:53:25;1.90;76.00
48551;DHT22;34397;51.176;6.738;2023-01-25T13:56:01;1.90;76.00
48551;DHT22;34397;51.176;6.738;2023-01-25T13:58:35;1.90;76.10
48551;DHT22;34397;51.176;6.738;2023-01-25T14:01:17;1.80;76.40
48551;DHT22;34397;51.176;6.738;2023-01-25T14:03:55;1.80;76.40
48551;DHT22;34397;51.176;6.738;2023-01-25T14:06:30;1.80;76.20
48551;DHT22;34397;51.176;6.738;2023-01-25T14:09:05;1.80;76.10
48551;DHT22;34397;51.176;6.738;2023-01-25T14:11:48;1.80;76.20
48551;DHT22;34397;51.176;6.738;2023-01-25T14:14:25;1.80;76.40
48551;DHT22;34397;51.176;6.738;2023-01-25T14:17:14;1.80;76.90
48551;DHT22;34397;51.176;6.738;2023-01-25T14:19:49;1.70;76.70
48551;DHT22;34397;51.176;6.738;2023-01-25T14:22:23;1.70;76.70
48551;DHT22;34397;51.176;6.738;2023-01-25T14:25:01;1.70;76.90
48551;DHT22;34397;51.176;6.738;2023-01-25T14:27:41;1.80;77.00
48551;DHT22;34397;51.176;6.738;2023-01-25T14:30:19;1.80;77.00
48551;DHT22;34397;51.176;6.738;2023-01-25T14:32:54;1.80;76.90
48551;DHT22;34397;51.176;6.738;2023-01-25T14:35:38;1.80;76.70
48551;DHT22;34397;51.176;6.738;2023-01-25T14:38:22;1.80;76.60
48551;DHT22;34397;51.176;6.738;2023-01-25T14:41:02;1.80;76.20
48551;DHT22;34397;51.176;6.738;2023-01-25T14:43:40;1.90;76.50
48551;DHT22;34397;51.176;6.738;2023-01-25T14:46:23;1.90;76.60
48551;DHT22;34397;51.176;6.738;2023-01-25T14:49:16;1.90;76.40
48551;DHT22;34397;51.176;6.738;2023-01-25T14:52:01;1.90;76.30
48551;DHT22;34397;51.176;6.738;2023-01-25T14:54:35;1.80;76.20
48551;DHT22;34397;51.176;6.738;2023-01-25T14:57:28;1.80;76.40
48551;DHT22;34397;51.176;6.738;2023-01-25T15:00:05;1.80;76.60
48551;DHT22;34397;51.176;6.738;2023-01-25T15:02:43;1.80;76.70
48551;DHT22;34397;51.176;6.738;2023-01-25T15:05:20;1.80;76.70
48551;DHT22;34397;51.176;6.738;2023-01-25T15:07:55;1.80;76.50
48551;DHT22;34397;51.176;6.738;2023-01-25T15:10:28;1.80;76.40
48551;DHT22;34397;51.176;6.738;2023-01-25T15:13:02;1.80;76.50
48551;DHT22;34397;51.176;6.738;2023-01-25T15:15:49;1.80;76.50
48551;DHT22;34397;51.176;6.738;2023-01-25T15:18:42;1.80;76.30
48551;DHT22;34397;51.176;6.738;2023-01-25T15:21:16;1.80;75.90
48551;DHT22;34397;51.176;6.738;2023-01-25T15:23:49;1.80;76.00
48551;DHT22;34397;51.176;6.738;2023-01-25T15:26:23;1.80;76.10
48551;DHT22;34397;51.176;6.738;2023-01-25T15:28:58;1.80;76.20
48551;DHT22;34397;51.176;6.738;2023-01-25T15:31:35;1.70;76.30
48551;DHT22;34397;51.176;6.738;2023-01-25T15:34:10;1.70;76.50
48551;DHT22;34397;51.176;6.738;2023-01-25T15:36:45;1.80;76.70
48551;DHT22;34397;51.176;6.738;2023-01-25T15:39:18;1.80;76.60
48551;DHT22;34397;51.176;6.738;2023-01-25T15:41:50;1.80;76.60
48551;DHT22;34397;51.176;6.738;2023-01-25T15:44:22;1.80;76.30
48551;DHT22;34397;51.176;6.738;2023-01-25T15:46:55;1.80;76.10
48551;DHT22;34397;51.176;6.738;2023-01-25T15:49:28;1.80;75.90
48551;DHT22;34397;51.176;6.738;2023-01-25T15:52:01;1.70;75.40
48551;DHT22;34397;51.176;6.738;2023-01-25T15:54:33;1.70;75.40
48551;DHT22;34397;51.176;6.738;2023-01-25T15:57:07;1.60;75.90
48551;DHT22;34397;51.176;6.738;2023-01-25T15:59:48;1.60;76.10
48551;DHT22;34397;51.176;6.738;2023-01-25T16:02:22;1.50;77.10
48551;DHT22;34397;51.176;6.738;2023-01-25T16:04:55;1.50;76.80
48551;DHT22;34397;51.176;6.738;2023-01-25T16:07:28;1.50;76.90
48551;DHT22;34397;51.176;6.738;2023-01-25T16:10:00;1.50;77.00
48551;DHT22;34397;51.176;6.738;2023-01-25T16:12:32;1.50;76.70
48551;DHT22;34397;51.176;6.738;2023-01-25T16:15:06;1.50;76.60
48551;DHT22;34397;51.176;6.738;2023-01-25T16:17:40;1.40;76.80
48551;DHT22;34397;51.176;6.738;2023-01-25T16:20:16;1.50;77.20
48551;DHT22;34397;51.176;6.738;2023-01-25T16:22:49;1.50;77.30
48551;DHT22;34397;51.176;6.738;2023-01-25T16:25:21;1.40;77.30
48551;DHT22;34397;51.176;6.738;2023-01-25T16:27:53;1.50;77.50
48551;DHT22;34397;51.176;6.738;2023-01-25T16:30:25;1.50;77.50
48551;DHT22;34397;51.176;6.738;2023-01-25T16:33:01;1.50;77.50
48551;DHT22;34397;51.176;6.738;2023-01-25T16:35:33;1.50;77.50
48551;DHT22;34397;51.176;6.738;2023-01-25T16:38:05;1.50;77.10
48551;DHT22;34397;51.176;6.738;2023-01-25T16:40:37;1.50;76.90
48551;DHT22;34397;51.176;6.738;2023-01-25T16:43:09;1.50;76.90
48551;DHT22;34397;51.176;6.738;2023-01-25T16:45:41;1.50;77.00
48551;DHT22;34397;51.176;6.738;2023-01-25T16:48:14;1.40;77.00
48551;DHT22;34397;51.176;6.738;2023-01-25T16:50:48;1.50;77.00
48551;DHT22;34397;51.176;6.738;2023-01-25T16:53:20;1.40;76.60
48551;DHT22;34397;51.176;6.738;2023-01-25T16:55:52;1.30;76.70
48551;DHT22;34397;51.176;6.738;2023-01-25T16:58:24;1.30;77.00